createdAt,value
2019-04-02T00:01:37.451Z,35.30
2019-04-02T00:04:23.168Z,35.30
2019-04-02T00:07:08.879Z,35.30
2019-04-02T00:09:54.917Z,35.30
2019-04-02T00:12:40.694Z,35.30
2019-04-02T00:15:26.935Z,35.30
2019-04-02T00:18:14.627Z,35.20
2019-04-02T00:21:02.330Z,35.30
2019-04-02T00:23:48.118Z,35.30
2019-04-02T00:26:33.777Z,35.30
2019-04-02T00:29:19.179Z,35.30
2019-04-02T00:32:05.175Z,35.30
2019-04-02T00:34:51.239Z,35.40
2019-04-02T00:37:37.467Z,35.40
2019-04-02T00:40:23.750Z,35.40
2019-04-02T00:43:09.717Z,35.30
2019-04-02T00:45:55.320Z,35.40
2019-04-02T00:48:41.613Z,35.40
2019-04-02T00:51:27.207Z,35.40
2019-04-02T00:54:13.647Z,35.40
2019-04-02T00:56:59.253Z,35.30
2019-04-02T00:59:44.945Z,35.40
2019-04-02T01:02:30.538Z,35.30
2019-04-02T01:05:18.559Z,35.30
2019-04-02T01:08:04.503Z,35.30
2019-04-02T01:10:51.217Z,35.20
2019-04-02T01:13:37.693Z,35.20
2019-04-02T01:16:23.477Z,35.20
2019-04-02T01:19:09.592Z,35.20
2019-04-02T01:21:55.433Z,35.20
2019-04-02T01:24:41.275Z,35.20
2019-04-02T01:27:26.988Z,35.10
2019-04-02T01:30:12.972Z,35.20
2019-04-02T01:32:58.959Z,35.10
2019-04-02T01:35:44.512Z,35.10
2019-04-02T01:38:30.280Z,35.10
2019-04-02T01:41:15.857Z,35.20
2019-04-02T01:44:01.598Z,35.20
2019-04-02T01:46:47.267Z,35.10
2019-04-02T01:49:33.479Z,35.10
2019-04-02T01:52:19.243Z,35.10
2019-04-02T01:55:05.069Z,35.20
2019-04-02T01:57:50.729Z,35.00
2019-04-02T02:00:36.836Z,35.00
2019-04-02T02:03:22.574Z,35.10
2019-04-02T02:06:08.534Z,35.10
2019-04-02T02:08:54.135Z,35.10
2019-04-02T02:11:39.924Z,35.00
2019-04-02T02:14:27.273Z,35.10
2019-04-02T02:17:13.363Z,35.10
2019-04-02T02:19:59.596Z,35.00
2019-04-02T02:22:45.320Z,35.00
2019-04-02T02:25:31.363Z,35.00
2019-04-02T02:28:17.132Z,35.00
2019-04-02T02:31:06.566Z,35.00
2019-04-02T02:33:50.478Z,35.00
2019-04-02T02:36:36.180Z,35.00
2019-04-02T02:39:21.783Z,34.90
2019-04-02T02:42:12.138Z,35.00
2019-04-02T02:44:58.888Z,34.90
2019-04-02T02:47:46.043Z,35.00
2019-04-02T02:50:32.617Z,35.00
2019-04-02T02:53:19.417Z,34.90
2019-04-02T02:56:06.001Z,34.90
2019-04-02T02:58:51.508Z,34.90
2019-04-02T03:01:38.446Z,34.90
2019-04-02T03:04:24.597Z,34.90
2019-04-02T03:07:10.332Z,34.90
2019-04-02T03:09:56.526Z,34.90
2019-04-02T03:12:42.308Z,34.90
2019-04-02T03:15:27.906Z,34.90
2019-04-02T03:18:13.729Z,34.90
2019-04-02T03:20:59.830Z,34.90
2019-04-02T03:23:48.058Z,34.90
2019-04-02T03:26:33.410Z,34.80
2019-04-02T03:29:19.063Z,34.90
2019-04-02T03:32:08.881Z,34.90
2019-04-02T03:34:57.770Z,34.80
2019-04-02T03:37:39.986Z,34.80
2019-04-02T03:40:27.041Z,34.70
2019-04-02T03:43:13.031Z,34.70
2019-04-02T03:45:58.843Z,34.70
2019-04-02T03:48:44.937Z,34.70
2019-04-02T03:51:31.136Z,34.60
2019-04-02T03:54:16.671Z,34.60
2019-04-02T03:57:02.763Z,34.60
2019-04-02T03:59:48.862Z,34.60
2019-04-02T04:02:36.752Z,34.60
2019-04-02T04:05:24.515Z,34.60
2019-04-02T04:08:12.200Z,34.50
2019-04-02T04:11:03.448Z,34.50
2019-04-02T04:13:51.456Z,34.50
2019-04-02T04:16:40.649Z,34.50
2019-04-02T04:19:25.372Z,34.60
2019-04-02T04:22:12.582Z,34.50
2019-04-02T04:24:59.723Z,34.50
2019-04-02T04:27:45.971Z,34.40
2019-04-02T04:30:32.444Z,34.40
2019-04-02T04:33:19.028Z,34.50
2019-04-02T04:36:05.472Z,34.40
2019-04-02T04:38:53.042Z,34.50
2019-04-02T04:41:39.302Z,35.00
2019-04-02T04:44:25.685Z,34.40
2019-04-02T04:47:11.559Z,34.40
2019-04-02T04:49:58.377Z,34.50
2019-04-02T04:52:45.423Z,34.40
2019-04-02T04:55:31.037Z,34.40
2019-04-02T04:58:17.193Z,34.40
2019-04-02T05:01:02.828Z,34.40
2019-04-02T05:04:24.994Z,34.40
2019-04-02T05:07:10.633Z,34.40
2019-04-02T05:09:56.459Z,34.30
2019-04-02T05:12:42.053Z,34.30
2019-04-02T05:15:27.652Z,34.30
2019-04-02T05:18:13.225Z,34.30
2019-04-02T05:20:59.350Z,34.30
2019-04-02T05:23:45.716Z,34.20
2019-04-02T05:26:31.383Z,34.20
2019-04-02T05:29:16.948Z,34.10
2019-04-02T05:32:02.635Z,34.00
2019-04-02T05:34:48.215Z,33.90
2019-04-02T05:37:34.363Z,33.80
2019-04-02T05:40:20.176Z,33.70
2019-04-02T05:43:05.992Z,33.40
2019-04-02T05:45:51.795Z,33.10
2019-04-02T05:48:39.039Z,32.80
2019-04-02T05:51:25.216Z,32.60
2019-04-02T05:54:12.631Z,32.40
2019-04-02T05:56:58.237Z,32.10
2019-04-02T05:59:44.011Z,31.90
2019-04-02T06:02:30.064Z,31.70
2019-04-02T06:05:18.157Z,31.50
2019-04-02T06:08:04.570Z,31.40
2019-04-02T06:10:51.284Z,31.10
2019-04-02T06:13:36.720Z,31.00
2019-04-02T06:16:23.223Z,30.70
2019-04-02T06:19:10.196Z,30.50
2019-04-02T06:21:56.389Z,30.30
2019-04-02T06:24:42.605Z,30.10
2019-04-02T06:27:28.633Z,30.00
2019-04-02T06:30:15.064Z,29.90
2019-04-02T06:33:01.769Z,29.80
2019-04-02T06:35:49.123Z,29.70
2019-04-02T06:38:35.272Z,29.60
2019-04-02T06:41:21.562Z,29.50
2019-04-02T06:44:08.794Z,29.30
2019-04-02T06:46:54.807Z,29.20
2019-04-02T06:50:03.239Z,29.10
2019-04-02T06:52:50.228Z,29.00
2019-04-02T06:55:36.888Z,28.80
2019-04-02T06:58:22.416Z,28.70
2019-04-02T07:01:25.733Z,28.60
2019-04-02T07:03:56.472Z,28.50
2019-04-02T07:06:42.249Z,28.40
2019-04-02T07:09:30.847Z,28.30
2019-04-02T07:12:15.542Z,28.20
2019-04-02T07:15:01.151Z,28.10
2019-04-02T07:17:47.383Z,28.00
2019-04-02T07:20:33.782Z,27.90
2019-04-02T07:23:20.920Z,27.80
2019-04-02T07:26:07.131Z,27.80
2019-04-02T07:28:54.443Z,27.70
2019-04-02T07:31:43.668Z,27.70
2019-04-02T07:34:29.393Z,27.60
2019-04-02T07:37:14.995Z,27.60
2019-04-02T07:40:00.596Z,27.70
2019-04-02T07:42:46.277Z,27.60
2019-04-02T07:45:31.975Z,27.60
2019-04-02T07:48:17.677Z,27.50
2019-04-02T07:51:03.383Z,27.40
2019-04-02T07:53:50.005Z,27.30
2019-04-02T07:56:37.300Z,27.20
2019-04-02T07:59:23.477Z,27.10
2019-04-02T08:02:09.187Z,27.00
2019-04-02T08:04:54.804Z,26.90
2019-04-02T08:07:41.463Z,26.80
2019-04-02T08:10:27.103Z,26.70
2019-04-02T08:13:12.707Z,26.70
2019-04-02T08:15:58.447Z,26.60
2019-04-02T08:18:44.382Z,26.50
2019-04-02T08:21:30.059Z,26.50
2019-04-02T08:24:16.055Z,26.40
2019-04-02T08:27:02.051Z,26.40
2019-04-02T08:29:48.080Z,26.30
2019-04-02T08:32:33.860Z,26.40
2019-04-02T08:35:19.847Z,26.80
2019-04-02T08:38:08.016Z,26.30
2019-04-02T08:40:53.275Z,26.10
2019-04-02T08:43:38.935Z,26.20
2019-04-02T08:46:24.627Z,26.10
2019-04-02T08:49:10.840Z,26.10
2019-04-02T08:51:56.944Z,26.10
2019-04-02T08:54:42.596Z,26.10
2019-04-02T08:57:28.795Z,26.10
2019-04-02T09:00:15.251Z,26.10
2019-04-02T09:03:01.224Z,26.20
2019-04-02T09:05:46.945Z,26.20
2019-04-02T09:08:32.648Z,26.10
2019-04-02T09:11:28.316Z,26.20
2019-04-02T09:14:07.995Z,26.20
2019-04-02T09:16:53.846Z,26.20
2019-04-02T09:19:39.613Z,26.20
2019-04-02T09:22:25.149Z,26.30
2019-04-02T09:25:11.301Z,26.30
2019-04-02T09:27:57.497Z,26.30
2019-04-02T09:30:43.132Z,26.40
2019-04-02T09:33:28.894Z,26.40
2019-04-02T09:36:14.557Z,26.40
2019-04-02T09:39:00.151Z,26.50
2019-04-02T09:41:46.304Z,26.50
2019-04-02T09:44:31.870Z,26.40
2019-04-02T09:47:17.695Z,26.60
2019-04-02T09:50:04.641Z,26.60
2019-04-02T09:52:51.244Z,26.60
2019-04-02T09:55:48.064Z,26.70
2019-04-02T09:58:24.587Z,26.80
2019-04-02T10:01:13.390Z,26.80
2019-04-02T10:04:00.352Z,26.80
2019-04-02T10:06:45.999Z,26.90
2019-04-02T10:09:34.848Z,26.90
2019-04-02T10:12:19.841Z,27.00
2019-04-02T10:15:05.720Z,27.00
2019-04-02T10:17:51.455Z,27.10
2019-04-02T10:20:37.183Z,27.10
2019-04-02T10:23:22.972Z,27.10
2019-04-02T10:26:09.175Z,27.20
2019-04-02T10:28:56.371Z,27.30
2019-04-02T10:31:42.159Z,27.30
2019-04-02T10:34:27.768Z,27.40
2019-04-02T10:37:16.439Z,27.40
2019-04-02T10:40:02.226Z,27.50
2019-04-02T10:42:49.074Z,27.50
2019-04-02T10:45:37.525Z,27.60
2019-04-02T10:48:22.876Z,27.70
2019-04-02T10:51:10.850Z,27.80
2019-04-02T10:53:57.611Z,27.80
2019-04-02T10:56:43.685Z,27.90
2019-04-02T10:59:29.855Z,28.00
2019-04-02T11:02:15.549Z,28.00
2019-04-02T11:05:03.137Z,28.00
2019-04-02T11:07:49.186Z,28.10
2019-04-02T11:10:35.608Z,28.30
2019-04-02T11:13:22.098Z,28.30
2019-04-02T11:16:08.468Z,28.40
2019-04-02T11:18:54.179Z,28.40
2019-04-02T11:21:40.388Z,28.50
2019-04-02T11:24:28.068Z,28.50
2019-04-02T11:27:14.063Z,28.60
2019-04-02T11:30:00.197Z,28.60
2019-04-02T11:32:45.895Z,28.60
2019-04-02T11:35:31.636Z,28.70
2019-04-02T11:38:17.770Z,28.80
2019-04-02T11:41:03.603Z,28.70
2019-04-02T11:43:49.307Z,28.70
2019-04-02T11:46:34.939Z,28.80
2019-04-02T11:49:21.071Z,28.70
2019-04-02T11:52:06.646Z,28.70
2019-04-02T11:54:52.807Z,28.70
2019-04-02T11:57:41.056Z,28.80
2019-04-02T12:00:28.079Z,28.80
2019-04-02T12:03:13.707Z,28.80
2019-04-02T12:05:59.612Z,28.90
2019-04-02T12:08:45.236Z,28.80
2019-04-02T12:11:31.599Z,28.90
2019-04-02T12:14:17.207Z,28.90
2019-04-02T12:17:02.988Z,28.90
2019-04-02T12:19:48.539Z,28.90
2019-04-02T12:22:34.635Z,29.00
2019-04-02T12:25:20.243Z,28.90
2019-04-02T12:28:06.816Z,29.00
2019-04-02T12:30:53.521Z,29.20
2019-04-02T12:33:39.393Z,29.20
2019-04-02T12:36:24.995Z,29.30
2019-04-02T12:39:11.940Z,29.20
2019-04-02T12:41:58.667Z,29.30
2019-04-02T12:44:46.352Z,29.30
2019-04-02T12:47:32.222Z,29.40
2019-04-02T12:50:18.011Z,29.30
2019-04-02T12:53:03.815Z,29.30
2019-04-02T12:55:49.830Z,29.40
2019-04-02T12:58:35.512Z,29.30
2019-04-02T13:01:21.669Z,29.50
2019-04-02T13:04:07.439Z,29.50
2019-04-02T13:06:53.143Z,29.50
2019-04-02T13:09:38.800Z,29.60
2019-04-02T13:12:24.328Z,29.50
2019-04-02T13:15:10.009Z,29.60
2019-04-02T13:17:56.443Z,29.70
2019-04-02T13:20:42.195Z,29.80
2019-04-02T13:23:28.208Z,29.70
2019-04-02T13:26:14.015Z,29.70
2019-04-02T13:28:59.739Z,29.50
2019-04-02T13:31:45.975Z,29.40
2019-04-02T13:34:32.019Z,29.50
2019-04-02T13:37:18.581Z,29.50
2019-04-02T13:40:06.033Z,29.60
2019-04-02T13:42:52.707Z,29.60
2019-04-02T13:45:38.759Z,29.70
2019-04-02T13:48:24.419Z,29.90
2019-04-02T13:51:10.093Z,30.00
2019-04-02T13:53:55.651Z,30.00
2019-04-02T13:56:41.855Z,30.00
2019-04-02T13:59:27.431Z,29.80
2019-04-02T14:02:13.972Z,29.90
2019-04-02T14:04:59.800Z,29.90
2019-04-02T14:07:45.715Z,29.90
2019-04-02T14:10:32.682Z,30.00
2019-04-02T14:13:18.752Z,30.10
2019-04-02T14:16:04.808Z,30.00
2019-04-02T14:18:50.687Z,30.10
2019-04-02T14:21:36.287Z,30.00
2019-04-02T14:24:21.975Z,30.00
2019-04-02T14:27:07.631Z,30.00
2019-04-02T14:29:53.500Z,30.00
2019-04-02T14:32:39.804Z,30.00
2019-04-02T14:35:26.156Z,30.10
2019-04-02T14:38:12.740Z,30.00
2019-04-02T14:40:59.100Z,30.00
2019-04-02T14:43:45.197Z,30.00
2019-04-02T14:46:30.990Z,30.00
2019-04-02T14:49:16.539Z,30.10
2019-04-02T14:52:02.263Z,30.00
2019-04-02T14:54:48.460Z,30.10
2019-04-02T14:57:34.139Z,30.20
2019-04-02T15:00:19.799Z,30.30
2019-04-02T15:03:06.087Z,30.30
2019-04-02T15:05:51.637Z,30.30
2019-04-02T15:08:38.167Z,30.10
2019-04-02T15:11:24.565Z,30.00
2019-04-02T15:14:10.163Z,30.30
2019-04-02T15:16:55.978Z,30.40
2019-04-02T15:19:42.224Z,30.10
2019-04-02T15:22:28.291Z,30.30
2019-04-02T15:25:13.981Z,30.50
2019-04-02T15:27:59.443Z,30.50
2019-04-02T15:30:45.758Z,30.40
2019-04-02T15:33:31.905Z,30.20
2019-04-02T15:36:18.132Z,30.40
2019-04-02T15:39:05.731Z,30.50
2019-04-02T15:41:51.688Z,30.50
2019-04-02T15:44:37.256Z,30.60
2019-04-02T15:47:23.891Z,30.30
2019-04-02T15:50:10.211Z,30.40
2019-04-02T15:52:57.542Z,30.50
2019-04-02T15:55:43.636Z,30.50
2019-04-02T15:58:30.996Z,30.60
2019-04-02T16:01:17.088Z,30.60
2019-04-02T16:04:03.359Z,30.00
2019-04-02T16:06:48.945Z,30.30
2019-04-02T16:09:34.623Z,30.00
2019-04-02T16:12:20.247Z,30.00
2019-04-02T16:15:06.391Z,30.10
2019-04-02T16:17:54.535Z,30.40
2019-04-02T16:20:40.023Z,30.30
2019-04-02T16:23:25.599Z,30.50
2019-04-02T16:26:13.653Z,30.50
2019-04-02T16:28:59.064Z,30.70
2019-04-02T16:31:44.818Z,30.90
2019-04-02T16:34:38.219Z,31.00
2019-04-02T16:37:19.056Z,31.10
2019-04-02T16:40:05.310Z,31.10
2019-04-02T16:42:51.860Z,31.00
2019-04-02T16:45:38.216Z,31.30
2019-04-02T16:48:23.986Z,31.40
2019-04-02T16:51:09.735Z,31.40
2019-04-02T16:53:55.861Z,31.50
2019-04-02T16:56:41.584Z,31.60
2019-04-02T16:59:27.369Z,31.60
2019-04-02T17:02:13.489Z,31.80
2019-04-02T17:04:59.896Z,31.90
2019-04-02T17:07:45.524Z,32.00
2019-04-02T17:10:32.150Z,32.00
2019-04-02T17:13:17.663Z,32.10
2019-04-02T17:16:03.263Z,32.20
2019-04-02T17:18:48.986Z,32.10
2019-04-02T17:21:39.057Z,32.30
2019-04-02T17:24:24.516Z,32.70
2019-04-02T17:27:10.275Z,32.80
2019-04-02T17:29:55.803Z,32.80
2019-04-02T17:32:41.511Z,32.70
2019-04-02T17:35:27.825Z,32.80
2019-04-02T17:38:14.116Z,32.70
2019-04-02T17:41:00.208Z,32.70
2019-04-02T17:43:45.901Z,32.80
2019-04-02T17:46:31.474Z,32.80
2019-04-02T17:49:17.365Z,32.80
2019-04-02T17:52:04.654Z,32.80
2019-04-02T17:54:50.471Z,32.80
2019-04-02T17:57:36.316Z,32.80
2019-04-02T18:00:22.593Z,32.90
2019-04-02T18:03:08.602Z,32.90
2019-04-02T18:05:55.892Z,32.90
2019-04-02T18:08:42.975Z,32.90
2019-04-02T18:11:29.383Z,33.00
2019-04-02T18:14:15.076Z,33.00
2019-04-02T18:17:00.759Z,32.90
2019-04-02T18:19:46.440Z,32.70
2019-04-02T18:22:32.075Z,33.00
2019-04-02T18:25:17.647Z,33.20
2019-04-02T18:28:03.500Z,33.20
2019-04-02T18:30:49.163Z,33.30
2019-04-02T18:33:36.138Z,33.40
2019-04-02T18:36:23.630Z,33.60
2019-04-02T18:39:09.636Z,33.60
2019-04-02T18:41:55.729Z,33.70
2019-04-02T18:44:42.503Z,33.70
2019-04-02T18:47:29.041Z,33.70
2019-04-02T18:50:15.034Z,33.80
2019-04-02T18:53:03.161Z,33.90
2019-04-02T18:55:48.781Z,33.90
2019-04-02T18:58:34.896Z,33.80
2019-04-02T19:01:20.527Z,33.70
2019-04-02T19:04:06.620Z,33.70
2019-04-02T19:06:52.866Z,33.50
2019-04-02T19:09:38.503Z,33.50
2019-04-02T19:12:24.466Z,33.40
2019-04-02T19:15:11.632Z,33.50
2019-04-02T19:17:57.731Z,33.50
2019-04-02T19:20:43.401Z,33.40
2019-04-02T19:23:31.105Z,33.50
2019-04-02T19:26:16.944Z,33.50
2019-04-02T19:29:03.549Z,33.50
2019-04-02T19:31:49.062Z,33.50
2019-04-02T19:34:34.831Z,33.60
2019-04-02T19:37:21.006Z,33.40
2019-04-02T19:40:06.923Z,33.60
2019-04-02T19:42:53.585Z,33.60
2019-04-02T19:45:40.982Z,33.60
2019-04-02T19:48:27.765Z,33.70
2019-04-02T19:51:17.777Z,33.70
2019-04-02T19:54:02.060Z,33.70
2019-04-02T19:56:50.271Z,33.80
2019-04-02T19:59:35.321Z,33.80
2019-04-02T20:02:22.099Z,33.80
2019-04-02T20:05:07.690Z,33.90
2019-04-02T20:07:53.872Z,33.90
2019-04-02T20:10:39.689Z,33.80
2019-04-02T20:13:25.891Z,33.90
2019-04-02T20:16:12.162Z,33.90
2019-04-02T20:18:58.502Z,34.00
2019-04-02T20:21:44.203Z,34.10
2019-04-02T20:24:32.303Z,34.00
2019-04-02T20:27:19.069Z,34.00
2019-04-02T20:30:05.875Z,34.00
2019-04-02T20:32:51.504Z,34.00
2019-04-02T20:35:38.617Z,34.00
2019-04-02T20:38:24.441Z,33.90
2019-04-02T20:41:11.953Z,34.00
2019-04-02T20:43:59.296Z,33.90
2019-04-02T20:46:45.551Z,33.90
2019-04-02T20:49:31.639Z,33.90
2019-04-02T20:52:17.287Z,33.90
2019-04-02T20:55:03.065Z,33.90
2019-04-02T20:57:49.341Z,33.90
2019-04-02T21:00:35.464Z,33.90
2019-04-02T21:03:21.867Z,33.80
2019-04-02T21:06:08.228Z,33.70
2019-04-02T21:08:53.925Z,33.60
2019-04-02T21:11:39.448Z,33.60
2019-04-02T21:14:27.723Z,33.50
2019-04-02T21:17:13.860Z,33.50
2019-04-02T21:19:59.674Z,33.50
2019-04-02T21:22:45.257Z,33.40
2019-04-02T21:25:34.030Z,33.40
2019-04-02T21:28:19.852Z,33.30
2019-04-02T21:31:05.995Z,33.40
2019-04-02T21:33:51.601Z,33.30
2019-04-02T21:36:38.919Z,33.30
2019-04-02T21:39:25.104Z,33.20
2019-04-02T21:42:10.864Z,33.30
2019-04-02T21:44:57.149Z,33.30
2019-04-02T21:47:42.831Z,33.30
2019-04-02T21:50:29.007Z,33.30
2019-04-02T21:53:14.785Z,33.20
2019-04-02T21:56:00.423Z,33.20
2019-04-02T21:58:46.325Z,33.20
2019-04-02T22:01:32.454Z,33.20
2019-04-02T22:04:18.657Z,33.20
2019-04-02T22:07:05.468Z,33.20
2019-04-02T22:09:51.676Z,33.10
2019-04-02T22:12:37.233Z,33.10
2019-04-02T22:15:23.583Z,33.10
2019-04-02T22:18:09.123Z,33.10
2019-04-02T22:20:54.991Z,33.10
2019-04-02T22:23:42.911Z,33.10
2019-04-02T22:26:28.263Z,33.10
2019-04-02T22:29:16.010Z,33.00
2019-04-02T22:32:13.847Z,33.00
2019-04-02T22:34:50.538Z,33.10
2019-04-02T22:37:36.944Z,33.00
2019-04-02T22:40:24.671Z,33.00
2019-04-02T22:43:10.761Z,33.00
2019-04-02T22:45:56.505Z,33.00
2019-04-02T22:48:42.632Z,33.00
2019-04-02T22:51:28.564Z,33.60
2019-04-02T22:54:14.470Z,33.00
2019-04-02T22:57:02.395Z,33.00
2019-04-02T22:59:48.329Z,33.00
2019-04-02T23:02:34.123Z,33.00
2019-04-02T23:05:19.699Z,33.00
2019-04-02T23:08:05.391Z,33.00
2019-04-02T23:10:51.647Z,33.00
2019-04-02T23:13:37.208Z,33.00
2019-04-02T23:16:26.284Z,32.90
2019-04-02T23:19:12.550Z,32.90
2019-04-02T23:21:58.814Z,33.00
2019-04-02T23:24:47.068Z,32.90
2019-04-02T23:27:32.260Z,32.90
2019-04-02T23:30:20.310Z,32.90
2019-04-02T23:33:06.633Z,32.90
2019-04-02T23:35:52.321Z,32.90
2019-04-02T23:38:38.325Z,33.00
2019-04-02T23:41:24.865Z,33.00
2019-04-02T23:44:10.889Z,32.90
2019-04-02T23:46:56.943Z,33.00
2019-04-02T23:49:42.762Z,33.00
2019-04-02T23:52:28.787Z,33.00
2019-04-02T23:55:14.374Z,33.00
2019-04-02T23:58:00.207Z,33.00
